Arklow Wind — EIKZ — position and weather

sailwx.info

Track history (hours):
 
Tides and Currents Weather Stations Pressure Air Temp Water Temp Dewpoint Dewpoint Depression Visibility Wind Speed Wind Dir Waves Ship Positions

Arklow Wind

Last reported at 2014-Aug-19 14:04 UTC. Time now 2014-Aug-20 10:44 UTC.
Position N 49°27' E 000°34'.

Length 136 m; draft 5.1 m.

Type: Cargo ship. MMSI: 250506000.

Date/timePositionNaut miles runAvg speedWind from/ knotsBaromVisibWave heightAir tempDewpointWater temp
2014-Aug-19 14:04N 49°27' E 000°34'5 9.7
2014-Aug-19 13:33N 49°28' E 000°27'1211.7
2014-Aug-19 12:33N 49°26' E 000°09'1010.5
2014-Aug-19 11:33N 49°29' W 000°07'1 0.8
2014-Aug-19 10:33N 49°29' W 000°08'0 0.0
2014-Aug-19 09:33N 49°29' W 000°08'0 0.0
2014-Aug-19 08:24N 49°29' W 000°08'0 0.0
2014-Aug-19 07:33N 49°29' W 000°08'2 1.9
2014-Aug-19 06:33N 49°30' W 000°10'1212.4
2014-Aug-19 05:33N 49°42' W 000°11'48 9.0
2014-Aug-19 00:13N 50°29' E 000°07'6 8.8
2014-Aug-18 23:29N 50°32' E 000°16'9 9.2
2014-Aug-18 22:33N 50°35' E 000°29'10 9.8
2014-Aug-18 21:33N 50°40' E 000°42'9 9.0
2014-Aug-18 20:33N 50°45' E 000°53'1010.0
2014-Aug-18 19:33N 50°52' E 001°05'1010.3
2014-Aug-18 18:33N 50°59' E 001°17'1010.1
2014-Aug-18 17:33N 51°06' E 001°28'1110.9
2014-Aug-18 16:34N 51°15' E 001°38'1110.6
2014-Aug-18 15:33N 51°25' E 001°30'1211.7
2014-Aug-18 14:33N 51°29' E 001°13'1312.9
2014-Aug-18 13:33N 51°29' E 000°52'1312.8
2014-Aug-18 12:33N 51°30' E 000°32'8 7.6
2014-Aug-18 11:33N 51°27' E 000°21'0 0.3
2014-Aug-18 10:34N 51°28' E 000°21'0 0.0
2014-Aug-18 09:34N 51°28' E 000°21'0 0.0
2014-Aug-18 08:34N 51°28' E 000°21'0 0.0
2014-Aug-18 07:34N 51°28' E 000°21'0 0.0
2014-Aug-18 06:34N 51°28' E 000°21'0 0.0
2014-Aug-18 05:34N 51°28' E 000°21'0 0.0
2014-Aug-18 04:34N 51°28' E 000°21'0 0.0
2014-Aug-18 03:34N 51°28' E 000°21'0 0.0
2014-Aug-18 02:33N 51°28' E 000°21'0 0.0
2014-Aug-18 01:34N 51°28' E 000°21'0 0.0
2014-Aug-18 00:34N 51°28' E 000°21'0 0.0
2014-Aug-17 18:34N 51°28' E 000°21'0 0.0
2014-Aug-17 17:34N 51°28' E 000°21'0 0.0
2014-Aug-17 16:34N 51°28' E 000°21'0 0.0
2014-Aug-17 15:34N 51°28' E 000°21'0 0.0
2014-Aug-17 14:34N 51°28' E 000°21'0 0.0
2014-Aug-17 13:34N 51°28' E 000°21'0 0.0
2014-Aug-17 12:34N 51°28' E 000°21'0 0.0
2014-Aug-17 11:33N 51°28' E 000°21'0 0.0
2014-Aug-17 10:33N 51°28' E 000°21'0 0.0
2014-Aug-17 09:34N 51°28' E 000°21'0 0.0
2014-Aug-17 08:33N 51°28' E 000°21'0 0.0
2014-Aug-17 07:34N 51°28' E 000°21'0 0.0
2014-Aug-17 06:34N 51°28' E 000°21'0 0.0
2014-Aug-17 05:34N 51°28' E 000°21'0 0.0
2014-Aug-17 04:34N 51°28' E 000°21'0 0.0
2014-Aug-17 03:33N 51°28' E 000°21'0 0.0
2014-Aug-17 02:33N 51°28' E 000°21'0 0.0
2014-Aug-17 01:34N 51°28' E 000°21'0 0.0
2014-Aug-17 00:34N 51°28' E 000°21'0 0.0
2014-Aug-16 23:33N 51°28' E 000°21'0 0.0
2014-Aug-16 22:34N 51°28' E 000°21'0 0.0
2014-Aug-16 21:33N 51°28' E 000°21'0 0.0
2014-Aug-16 20:34N 51°28' E 000°21'0 0.0
2014-Aug-16 19:34N 51°28' E 000°21'0 0.0
2014-Aug-16 18:34N 51°28' E 000°21'0 0.0
2014-Aug-16 17:34N 51°28' E 000°21'0 0.0
2014-Aug-16 16:34N 51°28' E 000°21'0 0.0
2014-Aug-16 15:34N 51°28' E 000°21'0 0.0
2014-Aug-16 14:34N 51°28' E 000°21'0 0.0
2014-Aug-16 13:34N 51°28' E 000°21'0 0.0
2014-Aug-16 12:34N 51°28' E 000°21'0 0.0
2014-Aug-16 11:34N 51°28' E 000°21'0 0.0
2014-Aug-16 10:34N 51°28' E 000°21'0 0.0
2014-Aug-16 09:33N 51°28' E 000°21'0 0.0
2014-Aug-16 08:33N 51°28' E 000°21'0 0.0
2014-Aug-16 07:33N 51°28' E 000°21'0 0.0
2014-Aug-16 06:33N 51°28' E 000°21'0 0.0
2014-Aug-16 05:34N 51°28' E 000°21'0 0.0
2014-Aug-16 04:34N 51°28' E 000°21'0 0.0
2014-Aug-16 03:33N 51°28' E 000°21'0 0.0
2014-Aug-16 02:34N 51°28' E 000°21'0 0.0
2014-Aug-16 01:33N 51°28' E 000°21'0 0.0
2014-Aug-16 00:33N 51°28' E 000°21'0 0.0
2014-Aug-15 23:33N 51°28' E 000°21'0 0.0
2014-Aug-15 22:33N 51°28' E 000°21'0 0.0
2014-Aug-15 21:33N 51°28' E 000°21'0 0.0
2014-Aug-15 20:34N 51°28' E 000°21'0 0.0
2014-Aug-15 19:34N 51°28' E 000°21'0 0.0
2014-Aug-15 18:33N 51°28' E 000°21'0 0.0
2014-Aug-15 17:33N 51°28' E 000°21'0 0.0
2014-Aug-15 16:33N 51°28' E 000°21'0 0.0
2014-Aug-15 15:34N 51°28' E 000°21'0 0.0
2014-Aug-15 14:33N 51°28' E 000°21'0 0.0
2014-Aug-15 13:34N 51°28' E 000°21'0 0.0
2014-Aug-15 12:33N 51°28' E 000°21'0 0.0
2014-Aug-15 11:34N 51°28' E 000°21'0 0.0
2014-Aug-15 10:33N 51°28' E 000°21'0 0.0
2014-Aug-15 09:33N 51°28' E 000°21'0 0.0
2014-Aug-15 08:34N 51°28' E 000°21'0 0.0
2014-Aug-15 07:33N 51°28' E 000°21'0 0.0
2014-Aug-15 06:33N 51°28' E 000°21'0 0.0
2014-Aug-15 05:33N 51°28' E 000°21'0 0.0
2014-Aug-15 04:34N 51°28' E 000°21'0 0.0
2014-Aug-15 03:33N 51°28' E 000°21'0 0.0
2014-Aug-15 02:34N 51°28' E 000°21'0 0.0
2014-Aug-15 01:33N 51°28' E 000°21'0 0.0
2014-Aug-15 00:34N 51°28' E 000°21'0 0.0
2014-Aug-14 23:34N 51°28' E 000°21'0 0.0
2014-Aug-14 22:33N 51°28' E 000°21'0 0.0
2014-Aug-14 21:33N 51°28' E 000°21'0 0.0
2014-Aug-14 20:33N 51°28' E 000°21'0 0.0
2014-Aug-14 19:33N 51°28' E 000°21'0 0.0
2014-Aug-14 18:33N 51°28' E 000°21'0 0.0
2014-Aug-14 17:34N 51°28' E 000°21'0 0.0
2014-Aug-14 16:34N 51°28' E 000°21'0 0.0
2014-Aug-14 15:33N 51°28' E 000°21'0 0.0
2014-Aug-14 14:33N 51°28' E 000°21'0 0.0
2014-Aug-14 13:34N 51°28' E 000°21'0 0.0
2014-Aug-14 12:34N 51°28' E 000°21'0 0.0
2014-Aug-14 11:34N 51°28' E 000°21'0 0.0
2014-Aug-14 10:34N 51°28' E 000°21'0 0.0
2014-Aug-14 09:34N 51°28' E 000°21'0 0.0
2014-Aug-14 08:34N 51°28' E 000°21'0 0.0
2014-Aug-14 07:34N 51°28' E 000°21'0 0.0
2014-Aug-14 06:34N 51°28' E 000°21'0 0.0
2014-Aug-14 05:34N 51°28' E 000°21'0 0.0
2014-Aug-14 04:34N 51°28' E 000°21'0 0.0
2014-Aug-14 03:34N 51°28' E 000°21'0 0.0
2014-Aug-14 02:34N 51°28' E 000°21'0 0.0
2014-Aug-14 01:34N 51°28' E 000°21'0 0.0
2014-Aug-14 00:33N 51°28' E 000°21'0 0.0
2014-Aug-13 23:34N 51°28' E 000°21'0 0.0
2014-Aug-13 22:34N 51°28' E 000°21'0 0.0
2014-Aug-13 21:33N 51°28' E 000°21'0 0.0
2014-Aug-13 20:33N 51°28' E 000°21'0 0.0
2014-Aug-13 19:33N 51°28' E 000°21'0 0.0
2014-Aug-13 18:33N 51°28' E 000°21'0 0.0
2014-Aug-13 17:33N 51°28' E 000°21'0 0.0
2014-Aug-13 16:33N 51°28' E 000°21'0 0.0
2014-Aug-13 15:33N 51°28' E 000°21'0 0.0
2014-Aug-13 14:33N 51°28' E 000°21'0 0.0
2014-Aug-13 13:33N 51°28' E 000°21'0 0.0
2014-Aug-13 12:33N 51°28' E 000°21'0 0.0
2014-Aug-13 11:33N 51°28' E 000°21'0 0.0
2014-Aug-13 10:33N 51°28' E 000°21'0 0.0
2014-Aug-13 09:33N 51°28' E 000°21'0 0.0
2014-Aug-13 08:33N 51°28' E 000°21'0 0.0
2014-Aug-13 07:33N 51°28' E 000°21'0 0.0
2014-Aug-13 06:33N 51°28' E 000°21'0 0.0
2014-Aug-13 05:33N 51°28' E 000°21'0 0.0
2014-Aug-13 04:33N 51°28' E 000°21'0 0.0
2014-Aug-13 03:33N 51°28' E 000°21'0 0.0
2014-Aug-13 02:33N 51°28' E 000°21'0 0.0
2014-Aug-13 01:33N 51°28' E 000°21'0 0.0
2014-Aug-13 00:33N 51°28' E 000°21'0 0.0
2014-Aug-12 23:33N 51°28' E 000°21'0 0.0
2014-Aug-12 22:33N 51°28' E 000°21'0 0.0
2014-Aug-12 21:33N 51°28' E 000°21'0 0.0
2014-Aug-12 20:33N 51°28' E 000°21'0 0.0
2014-Aug-12 19:33N 51°28' E 000°21'0 0.0
2014-Aug-12 18:19N 51°28' E 000°21'0 0.0
2014-Aug-12 17:33N 51°28' E 000°21'0 0.0
2014-Aug-12 16:33N 51°28' E 000°21'0 0.0
2014-Aug-12 15:33N 51°28' E 000°21'0 0.0
2014-Aug-12 14:33N 51°28' E 000°21'0 0.0
2014-Aug-12 13:33N 51°28' E 000°21'0 0.0
2014-Aug-12 12:33N 51°28' E 000°21'0 0.0
2014-Aug-12 11:33N 51°28' E 000°21'0 0.0
2014-Aug-12 10:34N 51°28' E 000°21'0 0.0
2014-Aug-12 09:34N 51°28' E 000°21'0 0.0
2014-Aug-12 08:34N 51°28' E 000°21'0 0.0
2014-Aug-12 07:34N 51°28' E 000°21'0 0.0
2014-Aug-12 06:33N 51°28' E 000°21'0 0.0
2014-Aug-12 05:34N 51°28' E 000°21'0 0.0
2014-Aug-12 04:34N 51°28' E 000°21'0 0.0
2014-Aug-12 03:34N 51°28' E 000°21'0 0.0
2014-Aug-12 02:34N 51°28' E 000°21'0 0.0
2014-Aug-12 01:34N 51°28' E 000°21'0 0.0
2014-Aug-12 00:31N 51°28' E 000°21'0 0.0
2014-Aug-11 23:34N 51°28' E 000°21'0 0.0
2014-Aug-11 22:34N 51°28' E 000°21'0 0.0
2014-Aug-11 21:34N 51°28' E 000°21'0 0.0
2014-Aug-11 20:34N 51°28' E 000°21'0 0.0
2014-Aug-11 19:34N 51°28' E 000°21'0 0.0
2014-Aug-11 18:34N 51°28' E 000°21'0 0.0
2014-Aug-11 17:34N 51°28' E 000°21'0 0.0
2014-Aug-11 16:33N 51°28' E 000°21'0 0.0
2014-Aug-11 15:33N 51°28' E 000°21'0 0.0
2014-Aug-11 14:34N 51°28' E 000°21'0 0.0
2014-Aug-11 13:34N 51°28' E 000°21'0 0.0
2014-Aug-11 12:34N 51°28' E 000°21'0 0.2
2014-Aug-11 11:34N 51°27' E 000°21'1 0.6
2014-Aug-11 10:34N 51°27' E 000°22'1010.3
2014-Aug-11 09:34N 51°30' E 000°38'1413.9
2014-Aug-11 08:33N 51°29' E 000°60'1413.5
2014-Aug-11 07:33N 51°29' E 001°22'8 8.5
2014-Aug-11 06:33N 51°24' E 001°33'7 6.7
2014-Aug-11 05:34N 51°18' E 001°38'6 6.3
2014-Aug-11 04:33N 51°12' E 001°37'8 7.6
2014-Aug-11 03:33N 51°04' E 001°37'52 7.4
2014-Aug-10 20:32N 50°27' E 000°39'9 9.5
2014-Aug-10 19:33N 50°24' E 000°25'  
Track history (hours):
 
Tides and Currents Weather Stations Pressure Air Temp Water Temp Dewpoint Dewpoint Depression Visibility Wind Speed Wind Dir Waves Ship Positions

Arklow Wind

Last reported at 2014-Aug-19 14:04 UTC. Time now 2014-Aug-20 10:44 UTC.
Position N 49°27' E 000°34'.

Length 136 m; draft 5.1 m.

Type: Cargo ship. MMSI: 250506000.

Date/timePositionNaut miles runAvg speedWind from/ knotsBaromVisibWave heightAir tempDewpointWater temp
2014-Aug-19 14:04N 49°27' E 000°34'5 9.7
2014-Aug-19 13:33N 49°28' E 000°27'1211.7
2014-Aug-19 12:33N 49°26' E 000°09'1010.5
2014-Aug-19 11:33N 49°29' W 000°07'1 0.8
2014-Aug-19 10:33N 49°29' W 000°08'0 0.0
2014-Aug-19 09:33N 49°29' W 000°08'0 0.0
2014-Aug-19 08:24N 49°29' W 000°08'0 0.0
2014-Aug-19 07:33N 49°29' W 000°08'2 1.9
2014-Aug-19 06:33N 49°30' W 000°10'1212.4
2014-Aug-19 05:33N 49°42' W 000°11'48 9.0
2014-Aug-19 00:13N 50°29' E 000°07'6 8.8
2014-Aug-18 23:29N 50°32' E 000°16'9 9.2
2014-Aug-18 22:33N 50°35' E 000°29'10 9.8
2014-Aug-18 21:33N 50°40' E 000°42'9 9.0
2014-Aug-18 20:33N 50°45' E 000°53'1010.0
2014-Aug-18 19:33N 50°52' E 001°05'1010.3
2014-Aug-18 18:33N 50°59' E 001°17'1010.1
2014-Aug-18 17:33N 51°06' E 001°28'1110.9
2014-Aug-18 16:34N 51°15' E 001°38'1110.6
2014-Aug-18 15:33N 51°25' E 001°30'1211.7
2014-Aug-18 14:33N 51°29' E 001°13'1312.9
2014-Aug-18 13:33N 51°29' E 000°52'1312.8
2014-Aug-18 12:33N 51°30' E 000°32'8 7.6
2014-Aug-18 11:33N 51°27' E 000°21'0 0.3
2014-Aug-18 10:34N 51°28' E 000°21'0 0.0
2014-Aug-18 09:34N 51°28' E 000°21'0 0.0
2014-Aug-18 08:34N 51°28' E 000°21'0 0.0
2014-Aug-18 07:34N 51°28' E 000°21'0 0.0
2014-Aug-18 06:34N 51°28' E 000°21'0 0.0
2014-Aug-18 05:34N 51°28' E 000°21'0 0.0
2014-Aug-18 04:34N 51°28' E 000°21'0 0.0
2014-Aug-18 03:34N 51°28' E 000°21'0 0.0
2014-Aug-18 02:33N 51°28' E 000°21'0 0.0
2014-Aug-18 01:34N 51°28' E 000°21'0 0.0
2014-Aug-18 00:34N 51°28' E 000°21'0 0.0
2014-Aug-17 18:34N 51°28' E 000°21'0 0.0
2014-Aug-17 17:34N 51°28' E 000°21'0 0.0
2014-Aug-17 16:34N 51°28' E 000°21'0 0.0
2014-Aug-17 15:34N 51°28' E 000°21'0 0.0
2014-Aug-17 14:34N 51°28' E 000°21'0 0.0
2014-Aug-17 13:34N 51°28' E 000°21'0 0.0
2014-Aug-17 12:34N 51°28' E 000°21'0 0.0
2014-Aug-17 11:33N 51°28' E 000°21'0 0.0
2014-Aug-17 10:33N 51°28' E 000°21'0 0.0
2014-Aug-17 09:34N 51°28' E 000°21'0 0.0
2014-Aug-17 08:33N 51°28' E 000°21'0 0.0
2014-Aug-17 07:34N 51°28' E 000°21'0 0.0
2014-Aug-17 06:34N 51°28' E 000°21'0 0.0
2014-Aug-17 05:34N 51°28' E 000°21'0 0.0
2014-Aug-17 04:34N 51°28' E 000°21'0 0.0
2014-Aug-17 03:33N 51°28' E 000°21'0 0.0
2014-Aug-17 02:33N 51°28' E 000°21'0 0.0
2014-Aug-17 01:34N 51°28' E 000°21'0 0.0
2014-Aug-17 00:34N 51°28' E 000°21'0 0.0
2014-Aug-16 23:33N 51°28' E 000°21'0 0.0
2014-Aug-16 22:34N 51°28' E 000°21'0 0.0
2014-Aug-16 21:33N 51°28' E 000°21'0 0.0
2014-Aug-16 20:34N 51°28' E 000°21'0 0.0
2014-Aug-16 19:34N 51°28' E 000°21'0 0.0
2014-Aug-16 18:34N 51°28' E 000°21'0 0.0
2014-Aug-16 17:34N 51°28' E 000°21'0 0.0
2014-Aug-16 16:34N 51°28' E 000°21'0 0.0
2014-Aug-16 15:34N 51°28' E 000°21'0 0.0
2014-Aug-16 14:34N 51°28' E 000°21'0 0.0
2014-Aug-16 13:34N 51°28' E 000°21'0 0.0
2014-Aug-16 12:34N 51°28' E 000°21'0 0.0
2014-Aug-16 11:34N 51°28' E 000°21'0 0.0
2014-Aug-16 10:34N 51°28' E 000°21'0 0.0
2014-Aug-16 09:33N 51°28' E 000°21'0 0.0
2014-Aug-16 08:33N 51°28' E 000°21'0 0.0
2014-Aug-16 07:33N 51°28' E 000°21'0 0.0
2014-Aug-16 06:33N 51°28' E 000°21'0 0.0
2014-Aug-16 05:34N 51°28' E 000°21'0 0.0
2014-Aug-16 04:34N 51°28' E 000°21'0 0.0
2014-Aug-16 03:33N 51°28' E 000°21'0 0.0
2014-Aug-16 02:34N 51°28' E 000°21'0 0.0
2014-Aug-16 01:33N 51°28' E 000°21'0 0.0
2014-Aug-16 00:33N 51°28' E 000°21'0 0.0
2014-Aug-15 23:33N 51°28' E 000°21'0 0.0
2014-Aug-15 22:33N 51°28' E 000°21'0 0.0
2014-Aug-15 21:33N 51°28' E 000°21'0 0.0
2014-Aug-15 20:34N 51°28' E 000°21'0 0.0
2014-Aug-15 19:34N 51°28' E 000°21'0 0.0
2014-Aug-15 18:33N 51°28' E 000°21'0 0.0
2014-Aug-15 17:33N 51°28' E 000°21'0 0.0
2014-Aug-15 16:33N 51°28' E 000°21'0 0.0
2014-Aug-15 15:34N 51°28' E 000°21'0 0.0
2014-Aug-15 14:33N 51°28' E 000°21'0 0.0
2014-Aug-15 13:34N 51°28' E 000°21'0 0.0
2014-Aug-15 12:33N 51°28' E 000°21'0 0.0
2014-Aug-15 11:34N 51°28' E 000°21'0 0.0
2014-Aug-15 10:33N 51°28' E 000°21'0 0.0
2014-Aug-15 09:33N 51°28' E 000°21'0 0.0
2014-Aug-15 08:34N 51°28' E 000°21'0 0.0
2014-Aug-15 07:33N 51°28' E 000°21'0 0.0
2014-Aug-15 06:33N 51°28' E 000°21'0 0.0
2014-Aug-15 05:33N 51°28' E 000°21'0 0.0
2014-Aug-15 04:34N 51°28' E 000°21'0 0.0
2014-Aug-15 03:33N 51°28' E 000°21'0 0.0
2014-Aug-15 02:34N 51°28' E 000°21'0 0.0
2014-Aug-15 01:33N 51°28' E 000°21'0 0.0
2014-Aug-15 00:34N 51°28' E 000°21'0 0.0
2014-Aug-14 23:34N 51°28' E 000°21'0 0.0
2014-Aug-14 22:33N 51°28' E 000°21'0 0.0
2014-Aug-14 21:33N 51°28' E 000°21'0 0.0
2014-Aug-14 20:33N 51°28' E 000°21'0 0.0
2014-Aug-14 19:33N 51°28' E 000°21'0 0.0
2014-Aug-14 18:33N 51°28' E 000°21'0 0.0
2014-Aug-14 17:34N 51°28' E 000°21'0 0.0
2014-Aug-14 16:34N 51°28' E 000°21'0 0.0
2014-Aug-14 15:33N 51°28' E 000°21'0 0.0
2014-Aug-14 14:33N 51°28' E 000°21'0 0.0
2014-Aug-14 13:34N 51°28' E 000°21'0 0.0
2014-Aug-14 12:34N 51°28' E 000°21'0 0.0
2014-Aug-14 11:34N 51°28' E 000°21'0 0.0
2014-Aug-14 10:34N 51°28' E 000°21'0 0.0
2014-Aug-14 09:34N 51°28' E 000°21'0 0.0
2014-Aug-14 08:34N 51°28' E 000°21'0 0.0
2014-Aug-14 07:34N 51°28' E 000°21'0 0.0
2014-Aug-14 06:34N 51°28' E 000°21'0 0.0
2014-Aug-14 05:34N 51°28' E 000°21'0 0.0
2014-Aug-14 04:34N 51°28' E 000°21'0 0.0
2014-Aug-14 03:34N 51°28' E 000°21'0 0.0
2014-Aug-14 02:34N 51°28' E 000°21'0 0.0
2014-Aug-14 01:34N 51°28' E 000°21'0 0.0
2014-Aug-14 00:33N 51°28' E 000°21'0 0.0
2014-Aug-13 23:34N 51°28' E 000°21'0 0.0
2014-Aug-13 22:34N 51°28' E 000°21'0 0.0
2014-Aug-13 21:33N 51°28' E 000°21'0 0.0
2014-Aug-13 20:33N 51°28' E 000°21'0 0.0
2014-Aug-13 19:33N 51°28' E 000°21'0 0.0
2014-Aug-13 18:33N 51°28' E 000°21'0 0.0
2014-Aug-13 17:33N 51°28' E 000°21'0 0.0
2014-Aug-13 16:33N 51°28' E 000°21'0 0.0
2014-Aug-13 15:33N 51°28' E 000°21'0 0.0
2014-Aug-13 14:33N 51°28' E 000°21'0 0.0
2014-Aug-13 13:33N 51°28' E 000°21'0 0.0
2014-Aug-13 12:33N 51°28' E 000°21'0 0.0
2014-Aug-13 11:33N 51°28' E 000°21'0 0.0
2014-Aug-13 10:33N 51°28' E 000°21'0 0.0
2014-Aug-13 09:33N 51°28' E 000°21'0 0.0
2014-Aug-13 08:33N 51°28' E 000°21'0 0.0
2014-Aug-13 07:33N 51°28' E 000°21'0 0.0
2014-Aug-13 06:33N 51°28' E 000°21'0 0.0
2014-Aug-13 05:33N 51°28' E 000°21'0 0.0
2014-Aug-13 04:33N 51°28' E 000°21'0 0.0
2014-Aug-13 03:33N 51°28' E 000°21'0 0.0
2014-Aug-13 02:33N 51°28' E 000°21'0 0.0
2014-Aug-13 01:33N 51°28' E 000°21'0 0.0
2014-Aug-13 00:33N 51°28' E 000°21'0 0.0
2014-Aug-12 23:33N 51°28' E 000°21'0 0.0
2014-Aug-12 22:33N 51°28' E 000°21'0 0.0
2014-Aug-12 21:33N 51°28' E 000°21'0 0.0
2014-Aug-12 20:33N 51°28' E 000°21'0 0.0
2014-Aug-12 19:33N 51°28' E 000°21'0 0.0
2014-Aug-12 18:19N 51°28' E 000°21'0 0.0
2014-Aug-12 17:33N 51°28' E 000°21'0 0.0
2014-Aug-12 16:33N 51°28' E 000°21'0 0.0
2014-Aug-12 15:33N 51°28' E 000°21'0 0.0
2014-Aug-12 14:33N 51°28' E 000°21'0 0.0
2014-Aug-12 13:33N 51°28' E 000°21'0 0.0
2014-Aug-12 12:33N 51°28' E 000°21'0 0.0
2014-Aug-12 11:33N 51°28' E 000°21'0 0.0
2014-Aug-12 10:34N 51°28' E 000°21'0 0.0
2014-Aug-12 09:34N 51°28' E 000°21'0 0.0
2014-Aug-12 08:34N 51°28' E 000°21'0 0.0
2014-Aug-12 07:34N 51°28' E 000°21'0 0.0
2014-Aug-12 06:33N 51°28' E 000°21'0 0.0
2014-Aug-12 05:34N 51°28' E 000°21'0 0.0
2014-Aug-12 04:34N 51°28' E 000°21'0 0.0
2014-Aug-12 03:34N 51°28' E 000°21'0 0.0
2014-Aug-12 02:34N 51°28' E 000°21'0 0.0
2014-Aug-12 01:34N 51°28' E 000°21'0 0.0
2014-Aug-12 00:31N 51°28' E 000°21'0 0.0
2014-Aug-11 23:34N 51°28' E 000°21'0 0.0
2014-Aug-11 22:34N 51°28' E 000°21'0 0.0
2014-Aug-11 21:34N 51°28' E 000°21'0 0.0
2014-Aug-11 20:34N 51°28' E 000°21'0 0.0
2014-Aug-11 19:34N 51°28' E 000°21'0 0.0
2014-Aug-11 18:34N 51°28' E 000°21'0 0.0
2014-Aug-11 17:34N 51°28' E 000°21'0 0.0
2014-Aug-11 16:33N 51°28' E 000°21'0 0.0
2014-Aug-11 15:33N 51°28' E 000°21'0 0.0
2014-Aug-11 14:34N 51°28' E 000°21'0 0.0
2014-Aug-11 13:34N 51°28' E 000°21'0 0.0
2014-Aug-11 12:34N 51°28' E 000°21'0 0.2
2014-Aug-11 11:34N 51°27' E 000°21'1 0.6
2014-Aug-11 10:34N 51°27' E 000°22'1010.3
2014-Aug-11 09:34N 51°30' E 000°38'1413.9
2014-Aug-11 08:33N 51°29' E 000°60'1413.5
2014-Aug-11 07:33N 51°29' E 001°22'8 8.5
2014-Aug-11 06:33N 51°24' E 001°33'7 6.7
2014-Aug-11 05:34N 51°18' E 001°38'6 6.3
2014-Aug-11 04:33N 51°12' E 001°37'8 7.6
2014-Aug-11 03:33N 51°04' E 001°37'52 7.4
2014-Aug-10 20:32N 50°27' E 000°39'9 9.5
2014-Aug-10 19:33N 50°24' E 000°25'  

Dump ship's entire track history